Nomadess — ZGDK5 — position and weather

sailwx.info

Track history (hours):
 
Tides and Currents Weather Stations Pressure Air Temp Water Temp Dewpoint Dewpoint Depression Visibility Wind Speed Wind Dir Waves Ship Positions

Nomadess

Last reported at 2018-Feb-24 05:40 UTC. Time now 2018-Feb-24 06:07 UTC.
Position N 26°08' W 080°07'.

Length 38 m; draft 2.7 m.

Type: Pleasure craft. MMSI: 319056500.

Date/timePositionNaut miles runAvg speedWind from/ knotsBaromVisibWave heightAir tempDewpointWater temp
2018-Feb-24 05:40N 26°08' W 080°07'0 0.1
2018-Feb-24 05:22N 26°08' W 080°07'0 0.0
2018-Feb-24 04:40N 26°08' W 080°07'0 0.0
2018-Feb-24 02:28N 26°08' W 080°07'0 0.0
2018-Feb-24 00:46N 26°08' W 080°07'0 0.0
2018-Feb-24 00:16N 26°08' W 080°07'0 0.0
2018-Feb-23 23:58N 26°08' W 080°07'0 0.0
2018-Feb-23 21:31N 26°08' W 080°07'0 0.0
2018-Feb-23 19:31N 26°08' W 080°07'0 0.0
2018-Feb-23 18:07N 26°08' W 080°07'0 0.0
2018-Feb-23 17:49N 26°08' W 080°07'0 0.0
2018-Feb-23 17:19N 26°08' W 080°07'0 0.0
2018-Feb-23 16:49N 26°08' W 080°07'0 0.0
2018-Feb-23 16:25N 26°08' W 080°07'0 0.0
2018-Feb-23 15:25N 26°08' W 080°07'0 0.0
2018-Feb-23 11:28N 26°08' W 080°07'0 0.0
2018-Feb-23 10:43N 26°08' W 080°07'0 0.0
2018-Feb-23 10:25N 26°08' W 080°07'0 0.0
2018-Feb-23 07:31N 26°08' W 080°07'0 0.0
2018-Feb-23 07:01N 26°08' W 080°07'0 0.0
2018-Feb-23 06:49N 26°08' W 080°07'0 0.0
2018-Feb-22 20:13N 26°08' W 080°07'0 0.0
2018-Feb-22 07:55N 26°08' W 080°07'0 0.0
2018-Feb-22 06:43N 26°08' W 080°07'0 0.0
2018-Feb-21 20:52N 26°08' W 080°07'0 0.0
2018-Feb-21 06:19N 26°08' W 080°07'0 0.0
2018-Feb-21 05:37N 26°08' W 080°07'0 0.0
2018-Feb-20 19:16N 26°08' W 080°07'0 0.0
2018-Feb-20 16:58N 26°08' W 080°07'0 0.4
2018-Feb-20 16:30N 26°08' W 080°07'2 3.9
2018-Feb-20 16:00N 26°06' W 080°07'4 7.5
2018-Feb-20 15:31N 26°03' W 080°05'5 9.8
2018-Feb-20 15:00N 25°58' W 080°06'510.8
2018-Feb-20 14:30N 25°53' W 080°05'510.7
2018-Feb-20 14:00N 25°47' W 080°06'3 6.2
2018-Feb-20 13:30N 25°46' W 080°09'2 3.6
2018-Feb-20 12:58N 25°47' W 080°11'0 0.0
2018-Feb-20 12:28N 25°47' W 080°11'0 0.0
2018-Feb-20 11:58N 25°47' W 080°11'0 0.0
2018-Feb-20 11:28N 25°47' W 080°11'0 0.0
2018-Feb-20 10:58N 25°47' W 080°11'0 0.0
2018-Feb-20 10:28N 25°47' W 080°11'0 0.0
2018-Feb-20 09:58N 25°47' W 080°11'0 0.0
2018-Feb-20 09:28N 25°47' W 080°11'0 0.0
2018-Feb-20 08:49N 25°47' W 080°11'0 0.0
2018-Feb-20 08:28N 25°47' W 080°11'0 0.0
2018-Feb-20 07:58N 25°47' W 080°11'0 0.0
2018-Feb-20 07:28N 25°47' W 080°11'0 0.0
2018-Feb-20 06:58N 25°47' W 080°11'0 0.0
2018-Feb-20 06:28N 25°47' W 080°11'0 0.0
2018-Feb-20 05:52N 25°47' W 080°11'0 0.0
2018-Feb-20 05:22N 25°47' W 080°11'0 0.0
2018-Feb-20 04:55N 25°47' W 080°11'0 0.0
2018-Feb-20 04:28N 25°47' W 080°11'0 0.0
2018-Feb-20 03:55N 25°47' W 080°11'0 0.0
2018-Feb-20 03:28N 25°47' W 080°11'0 0.0
2018-Feb-20 02:55N 25°47' W 080°11'0 0.0
2018-Feb-20 02:28N 25°47' W 080°11'0 0.0
2018-Feb-20 01:55N 25°47' W 080°11'0 0.0
2018-Feb-20 01:25N 25°47' W 080°11'0 0.0
2018-Feb-20 00:58N 25°47' W 080°11'0 0.0
2018-Feb-20 00:25N 25°47' W 080°11'0 0.0
2018-Feb-19 23:58N 25°47' W 080°11'0 0.0
2018-Feb-19 23:28N 25°47' W 080°11'0 0.0
2018-Feb-19 22:58N 25°47' W 080°11'0 0.0
2018-Feb-19 22:25N 25°47' W 080°11'0 0.0
2018-Feb-19 21:58N 25°47' W 080°11'0 0.0
2018-Feb-19 21:28N 25°47' W 080°11'0 0.0
2018-Feb-19 20:58N 25°47' W 080°11'0 0.0
2018-Feb-19 20:28N 25°47' W 080°11'0 0.0
2018-Feb-19 19:58N 25°47' W 080°11'0 0.0
2018-Feb-19 19:28N 25°47' W 080°11'0 0.0
2018-Feb-19 18:58N 25°47' W 080°11'0 0.0
2018-Feb-19 18:28N 25°47' W 080°11'0 0.0
2018-Feb-19 17:58N 25°47' W 080°11'0 0.0
2018-Feb-19 17:28N 25°47' W 080°11'0 0.0
2018-Feb-19 16:52N 25°47' W 080°11'0 0.0
2018-Feb-19 16:28N 25°47' W 080°11'0 0.0
2018-Feb-19 15:55N 25°47' W 080°11'0 0.0
2018-Feb-19 15:28N 25°47' W 080°11'0 0.0
2018-Feb-19 14:58N 25°47' W 080°11'0 0.0
2018-Feb-19 14:28N 25°47' W 080°11'0 0.0
2018-Feb-19 13:52N 25°47' W 080°11'0 0.0
2018-Feb-19 13:28N 25°47' W 080°11'0 0.0
2018-Feb-19 12:55N 25°47' W 080°11'0 0.0
2018-Feb-19 12:28N 25°47' W 080°11'0 0.0
2018-Feb-19 11:55N 25°47' W 080°11'0 0.0
2018-Feb-19 11:28N 25°47' W 080°11'0 0.0
2018-Feb-19 10:58N 25°47' W 080°11'0 0.0
2018-Feb-19 10:28N 25°47' W 080°11'0 0.0
2018-Feb-19 09:55N 25°47' W 080°11'0 0.0
2018-Feb-19 09:28N 25°47' W 080°11'0 0.0
2018-Feb-19 08:58N 25°47' W 080°11'0 0.0
2018-Feb-19 08:28N 25°47' W 080°11'0 0.0
2018-Feb-19 07:58N 25°47' W 080°11'0 0.0
2018-Feb-19 07:28N 25°47' W 080°11'0 0.0
2018-Feb-19 06:58N 25°47' W 080°11'0 0.0
2018-Feb-19 06:28N 25°47' W 080°11'0 0.0
2018-Feb-19 05:58N 25°47' W 080°11'0 0.0
2018-Feb-19 05:28N 25°47' W 080°11'0 0.0
2018-Feb-19 04:58N 25°47' W 080°11'0 0.0
2018-Feb-19 04:25N 25°47' W 080°11'0 0.0
2018-Feb-19 03:58N 25°47' W 080°11'0 0.0
2018-Feb-19 03:28N 25°47' W 080°11'0 0.0
2018-Feb-19 02:58N 25°47' W 080°11'0 0.0
2018-Feb-19 02:28N 25°47' W 080°11'0 0.0
2018-Feb-19 01:58N 25°47' W 080°11'0 0.0
2018-Feb-19 01:28N 25°47' W 080°11'0 0.0
2018-Feb-19 00:58N 25°47' W 080°11'0 0.0
2018-Feb-19 00:19N 25°47' W 080°11'0 0.0
2018-Feb-18 23:58N 25°47' W 080°11'0 0.0
2018-Feb-18 23:28N 25°47' W 080°11'0 0.0
2018-Feb-18 22:52N 25°47' W 080°11'0 0.0
2018-Feb-18 22:25N 25°47' W 080°11'0 0.0
2018-Feb-18 21:58N 25°47' W 080°11'0 0.0
2018-Feb-18 21:28N 25°47' W 080°11'0 0.0
2018-Feb-18 20:58N 25°47' W 080°11'0 0.0
2018-Feb-18 20:28N 25°47' W 080°11'0 0.0
2018-Feb-18 19:55N 25°47' W 080°11'0 0.0
2018-Feb-18 19:28N 25°47' W 080°11'0 0.0
2018-Feb-18 18:58N 25°47' W 080°11'0 0.0
2018-Feb-18 18:25N 25°47' W 080°11'0 0.0
2018-Feb-18 17:58N 25°47' W 080°11'0 0.0
2018-Feb-18 17:28N 25°47' W 080°11'0 0.0
2018-Feb-18 16:58N 25°47' W 080°11'0 0.0
2018-Feb-18 16:28N 25°47' W 080°11'0 0.0
2018-Feb-18 15:58N 25°47' W 080°11'0 0.0
2018-Feb-18 15:28N 25°47' W 080°11'0 0.0
2018-Feb-18 14:58N 25°47' W 080°11'0 0.0
2018-Feb-18 14:28N 25°47' W 080°11'0 0.0
2018-Feb-18 13:58N 25°47' W 080°11'0 0.0
2018-Feb-18 13:28N 25°47' W 080°11'0 0.0
2018-Feb-18 12:55N 25°47' W 080°11'0 0.0
2018-Feb-18 12:28N 25°47' W 080°11'0 0.0
2018-Feb-18 11:58N 25°47' W 080°11'0 0.0
2018-Feb-18 11:28N 25°47' W 080°11'0 0.0
2018-Feb-18 10:58N 25°47' W 080°11'0 0.0
2018-Feb-18 10:28N 25°47' W 080°11'0 0.0
2018-Feb-18 09:58N 25°47' W 080°11'0 0.0
2018-Feb-18 09:28N 25°47' W 080°11'0 0.0
2018-Feb-18 08:58N 25°47' W 080°11'0 0.0
2018-Feb-18 08:28N 25°47' W 080°11'0 0.0
2018-Feb-18 07:58N 25°47' W 080°11'0 0.0
2018-Feb-18 07:25N 25°47' W 080°11'0 0.0
2018-Feb-18 06:58N 25°47' W 080°11'0 0.0
2018-Feb-18 06:28N 25°47' W 080°11'0 0.0
2018-Feb-18 05:58N 25°47' W 080°11'0 0.0
2018-Feb-18 05:28N 25°47' W 080°11'0 0.0
2018-Feb-18 04:55N 25°47' W 080°11'0 0.0
2018-Feb-18 04:28N 25°47' W 080°11'0 0.0
2018-Feb-18 03:52N 25°47' W 080°11'0 0.0
2018-Feb-18 03:28N 25°47' W 080°11'0 0.0
2018-Feb-18 02:58N 25°47' W 080°11'0 0.0
2018-Feb-18 02:28N 25°47' W 080°11'0 0.0
2018-Feb-18 01:58N 25°47' W 080°11'0 0.0
2018-Feb-18 01:28N 25°47' W 080°11'0 0.0
2018-Feb-18 00:58N 25°47' W 080°11'0 0.0
2018-Feb-18 00:28N 25°47' W 080°11'0 0.0
2018-Feb-17 23:58N 25°47' W 080°11'0 0.0
2018-Feb-17 23:28N 25°47' W 080°11'0 0.0
2018-Feb-17 22:58N 25°47' W 080°11'0 0.0
2018-Feb-17 22:31N 25°47' W 080°11'0 0.0
2018-Feb-17 21:58N 25°47' W 080°11'0 0.0
2018-Feb-17 21:28N 25°47' W 080°11'0 0.0
2018-Feb-17 20:58N 25°47' W 080°11'0 0.0
2018-Feb-17 20:28N 25°47' W 080°11'0 0.0
2018-Feb-17 19:58N 25°47' W 080°11'0 0.0
2018-Feb-17 19:28N 25°47' W 080°11'0 0.0
2018-Feb-17 18:58N 25°47' W 080°11'0 0.0
2018-Feb-17 18:28N 25°47' W 080°11'0 0.0
2018-Feb-17 17:55N 25°47' W 080°11'0 0.0
2018-Feb-17 17:28N 25°47' W 080°11'0 0.0
2018-Feb-17 16:55N 25°47' W 080°11'0 0.0
2018-Feb-17 16:28N 25°47' W 080°11'0 0.0
2018-Feb-17 16:01N 25°47' W 080°11'0 0.0
2018-Feb-17 15:31N 25°47' W 080°11'0 0.0
2018-Feb-17 14:57N 25°47' W 080°11'0 0.0
2018-Feb-17 14:30N 25°47' W 080°11'0 0.0
2018-Feb-17 13:58N 25°47' W 080°11'0 0.0
2018-Feb-17 13:31N 25°47' W 080°11'0 0.0
2018-Feb-17 12:57N 25°47' W 080°11'0 0.0
2018-Feb-17 12:28N 25°47' W 080°11'0 0.0
2018-Feb-17 12:01N 25°47' W 080°11'0 0.0
2018-Feb-17 11:28N 25°47' W 080°11'0 0.0
2018-Feb-17 10:58N 25°47' W 080°11'0 0.0
2018-Feb-17 10:28N 25°47' W 080°11'0 0.0
2018-Feb-17 09:57N 25°47' W 080°11'0 0.0
2018-Feb-17 09:28N 25°47' W 080°11'0 0.0
2018-Feb-17 08:54N 25°47' W 080°11'0 0.0
2018-Feb-17 08:31N 25°47' W 080°11'0 0.0
2018-Feb-17 07:57N 25°47' W 080°11'0 0.0
2018-Feb-17 07:31N 25°47' W 080°11'0 0.0
2018-Feb-17 07:01N 25°47' W 080°11'0 0.0
2018-Feb-17 06:25N 25°47' W 080°11'0 0.0
2018-Feb-17 05:57N 25°47' W 080°11'0 0.0
2018-Feb-17 05:27N 25°47' W 080°11'0 0.0
2018-Feb-17 05:00N 25°47' W 080°11'0 0.0
2018-Feb-17 04:31N 25°47' W 080°11'0 0.0
2018-Feb-17 04:00N 25°47' W 080°11'0 0.0
2018-Feb-17 03:30N 25°47' W 080°11'0 0.0
2018-Feb-17 03:00N 25°47' W 080°11'0 0.0
2018-Feb-17 02:30N 25°47' W 080°11'0 0.0
2018-Feb-17 01:57N 25°47' W 080°11'0 0.0
2018-Feb-17 01:30N 25°47' W 080°11'0 0.0
2018-Feb-17 01:00N 25°47' W 080°11'0 0.0
2018-Feb-17 00:19N 25°47' W 080°11'0 0.0
2018-Feb-16 23:57N 25°47' W 080°11'0 0.0
2018-Feb-16 23:27N 25°47' W 080°11'0 0.0
2018-Feb-16 22:57N 25°47' W 080°11'0 0.0
2018-Feb-16 22:24N 25°47' W 080°11'0 0.0
2018-Feb-16 22:00N 25°47' W 080°11'0 0.0
2018-Feb-16 21:24N 25°47' W 080°11'0 0.0
2018-Feb-16 21:00N 25°47' W 080°11'0 0.0
2018-Feb-16 20:31N 25°47' W 080°11'0 0.0
2018-Feb-16 20:00N 25°47' W 080°11'0 0.0
2018-Feb-16 19:31N 25°47' W 080°11'0 0.0
2018-Feb-16 19:00N 25°47' W 080°11'0 0.0
2018-Feb-16 18:30N 25°47' W 080°11'0 0.0
2018-Feb-16 18:00N 25°47' W 080°11'0 0.0
2018-Feb-16 17:30N 25°47' W 080°11'0 0.0
2018-Feb-16 17:00N 25°47' W 080°11'0 0.0
2018-Feb-16 16:30N 25°47' W 080°11'0 0.0
2018-Feb-16 16:00N 25°47' W 080°11'0 0.0
2018-Feb-16 15:30N 25°47' W 080°11'0 0.0
2018-Feb-16 15:00N 25°47' W 080°11'0 0.0
2018-Feb-16 14:30N 25°47' W 080°11'0 0.0
2018-Feb-16 14:00N 25°47' W 080°11'0 0.0
2018-Feb-16 13:30N 25°47' W 080°11'0 0.0
2018-Feb-16 13:00N 25°47' W 080°11'0 0.0
2018-Feb-16 12:30N 25°47' W 080°11'0 0.0
2018-Feb-16 12:00N 25°47' W 080°11'0 0.0
2018-Feb-16 11:30N 25°47' W 080°11'0 0.0
2018-Feb-16 10:48N 25°47' W 080°11'0 0.0
2018-Feb-16 10:30N 25°47' W 080°11'0 0.0
2018-Feb-16 10:00N 25°47' W 080°11'0 0.0
2018-Feb-16 09:24N 25°47' W 080°11'0 0.0
2018-Feb-16 09:00N 25°47' W 080°11'0 0.0
2018-Feb-16 08:21N 25°47' W 080°11'0 0.0
2018-Feb-16 08:00N 25°47' W 080°11'0 0.0
2018-Feb-16 07:30N 25°47' W 080°11'0 0.0
2018-Feb-16 06:54N 25°47' W 080°11'0 0.0
2018-Feb-16 06:24N 25°47' W 080°11'0 0.0
2018-Feb-16 06:00N 25°47' W 080°11'0 0.0
2018-Feb-16 05:30N 25°47' W 080°11'0 0.0
2018-Feb-16 05:00N 25°47' W 080°11'0 0.0
2018-Feb-16 04:30N 25°47' W 080°11'0 0.0
2018-Feb-16 03:57N 25°47' W 080°11'0 0.0
2018-Feb-16 03:30N 25°47' W 080°11'0 0.0
2018-Feb-16 03:00N 25°47' W 080°11'0 0.0
2018-Feb-16 02:30N 25°47' W 080°11'0 0.0
2018-Feb-16 02:00N 25°47' W 080°11'0 0.0
2018-Feb-16 01:30N 25°47' W 080°11'0 0.0
2018-Feb-16 01:00N 25°47' W 080°11'0 0.0
2018-Feb-16 00:30N 25°47' W 080°11'0 0.0
2018-Feb-16 00:00N 25°47' W 080°11'0 0.0
2018-Feb-15 23:30N 25°47' W 080°11'0 0.0
2018-Feb-15 23:00N 25°47' W 080°11'0 0.0
2018-Feb-15 22:30N 25°47' W 080°11'0 0.0
2018-Feb-15 21:57N 25°47' W 080°11'0 0.0
2018-Feb-15 21:30N 25°47' W 080°11'0 0.0
2018-Feb-15 21:00N 25°47' W 080°11'0 0.0
2018-Feb-15 20:30N 25°47' W 080°11'0 0.0
2018-Feb-15 20:00N 25°47' W 080°11'0 0.0
2018-Feb-15 19:30N 25°47' W 080°11'0 0.0
2018-Feb-15 18:54N 25°47' W 080°11'0 0.0
2018-Feb-15 18:30N 25°47' W 080°11'0 0.0
2018-Feb-15 17:57N 25°47' W 080°11'0 0.0
2018-Feb-15 17:24N 25°47' W 080°11'0 0.0
2018-Feb-15 17:00N 25°47' W 080°11'0 0.0
2018-Feb-15 16:27N 25°47' W 080°11'0 0.0
2018-Feb-15 16:00N 25°47' W 080°11'0 0.0
2018-Feb-15 15:30N 25°47' W 080°11'0 0.0
2018-Feb-15 15:00N 25°47' W 080°11'0 0.0
2018-Feb-15 14:30N 25°47' W 080°11'0 0.0
2018-Feb-15 14:00N 25°47' W 080°11'0 0.0
2018-Feb-15 13:30N 25°47' W 080°11'0 0.0
2018-Feb-15 12:57N 25°47' W 080°11'0 0.0
2018-Feb-15 12:27N 25°47' W 080°11'0 0.0
2018-Feb-15 12:00N 25°47' W 080°11'0 0.0
2018-Feb-15 11:30N 25°47' W 080°11'0 0.0
2018-Feb-15 11:00N 25°47' W 080°11'0 0.0
2018-Feb-15 10:30N 25°47' W 080°11'0 0.0
2018-Feb-15 10:00N 25°47' W 080°11'0 0.0
2018-Feb-15 09:30N 25°47' W 080°11'0 0.0
2018-Feb-15 09:00N 25°47' W 080°11'0 0.0
2018-Feb-15 08:30N 25°47' W 080°11'0 0.0
2018-Feb-15 08:00N 25°47' W 080°11'0 0.0
2018-Feb-15 07:30N 25°47' W 080°11'0 0.0
2018-Feb-15 07:00N 25°47' W 080°11'0 0.0
2018-Feb-15 06:30N 25°47' W 080°11'0 0.0
2018-Feb-15 06:00N 25°47' W 080°11'0 0.0
2018-Feb-15 05:30N 25°47' W 080°11'0 0.0
2018-Feb-15 05:00N 25°47' W 080°11'0 0.0
2018-Feb-15 04:30N 25°47' W 080°11'0 0.0
2018-Feb-15 04:00N 25°47' W 080°11'0 0.0
2018-Feb-15 03:27N 25°47' W 080°11'0 0.0
2018-Feb-15 03:00N 25°47' W 080°11'0 0.0
2018-Feb-15 02:27N 25°47' W 080°11'0 0.0
2018-Feb-15 02:00N 25°47' W 080°11'0 0.0
2018-Feb-15 01:24N 25°47' W 080°11'0 0.0
2018-Feb-15 00:57N 25°47' W 080°11'0 0.0
2018-Feb-15 00:30N 25°47' W 080°11'0 0.0
2018-Feb-15 00:00N 25°47' W 080°11'0 0.0
2018-Feb-14 23:30N 25°47' W 080°11'0 0.0
2018-Feb-14 22:57N 25°47' W 080°11'0 0.0
2018-Feb-14 22:24N 25°47' W 080°11'0 0.0
2018-Feb-14 21:57N 25°47' W 080°11'0 0.0
2018-Feb-14 21:30N 25°47' W 080°11'0 0.0
2018-Feb-14 21:00N 25°47' W 080°11'0 0.0
2018-Feb-14 20:30N 25°47' W 080°11'0 0.0
2018-Feb-14 20:00N 25°47' W 080°11'0 0.0
2018-Feb-14 19:30N 25°47' W 080°11'0 0.0
2018-Feb-14 19:00N 25°47' W 080°11'0 0.0
2018-Feb-14 18:30N 25°47' W 080°11'0 0.0
2018-Feb-14 18:00N 25°47' W 080°11'0 0.0
2018-Feb-14 17:30N 25°47' W 080°11'0 0.0
2018-Feb-14 17:00N 25°47' W 080°11'1 2.4
2018-Feb-14 16:30N 25°47' W 080°10'3 6.4
2018-Feb-14 16:00N 25°46' W 080°06'611.2
2018-Feb-14 15:30N 25°52' W 080°06'611.0
2018-Feb-14 15:00N 25°57' W 080°06'611.5
2018-Feb-14 14:30N 26°03' W 080°05'4 7.5
2018-Feb-14 13:59N 26°06' W 080°07'2 4.4
2018-Feb-14 13:30N 26°08' W 080°06'0 0.2
2018-Feb-14 13:00N 26°08' W 080°07'0 0.0
2018-Feb-14 12:29N 26°08' W 080°07'  
Track history (hours):
 
Tides and Currents Weather Stations Pressure Air Temp Water Temp Dewpoint Dewpoint Depression Visibility Wind Speed Wind Dir Waves Ship Positions

Nomadess

Last reported at 2018-Feb-24 05:40 UTC. Time now 2018-Feb-24 06:07 UTC.
Position N 26°08' W 080°07'.

Length 38 m; draft 2.7 m.

Type: Pleasure craft. MMSI: 319056500.

Date/timePositionNaut miles runAvg speedWind from/ knotsBaromVisibWave heightAir tempDewpointWater temp
2018-Feb-24 05:40N 26°08' W 080°07'0 0.1
2018-Feb-24 05:22N 26°08' W 080°07'0 0.0
2018-Feb-24 04:40N 26°08' W 080°07'0 0.0
2018-Feb-24 02:28N 26°08' W 080°07'0 0.0
2018-Feb-24 00:46N 26°08' W 080°07'0 0.0
2018-Feb-24 00:16N 26°08' W 080°07'0 0.0
2018-Feb-23 23:58N 26°08' W 080°07'0 0.0
2018-Feb-23 21:31N 26°08' W 080°07'0 0.0
2018-Feb-23 19:31N 26°08' W 080°07'0 0.0
2018-Feb-23 18:07N 26°08' W 080°07'0 0.0
2018-Feb-23 17:49N 26°08' W 080°07'0 0.0
2018-Feb-23 17:19N 26°08' W 080°07'0 0.0
2018-Feb-23 16:49N 26°08' W 080°07'0 0.0
2018-Feb-23 16:25N 26°08' W 080°07'0 0.0
2018-Feb-23 15:25N 26°08' W 080°07'0 0.0
2018-Feb-23 11:28N 26°08' W 080°07'0 0.0
2018-Feb-23 10:43N 26°08' W 080°07'0 0.0
2018-Feb-23 10:25N 26°08' W 080°07'0 0.0
2018-Feb-23 07:31N 26°08' W 080°07'0 0.0
2018-Feb-23 07:01N 26°08' W 080°07'0 0.0
2018-Feb-23 06:49N 26°08' W 080°07'0 0.0
2018-Feb-22 20:13N 26°08' W 080°07'0 0.0
2018-Feb-22 07:55N 26°08' W 080°07'0 0.0
2018-Feb-22 06:43N 26°08' W 080°07'0 0.0
2018-Feb-21 20:52N 26°08' W 080°07'0 0.0
2018-Feb-21 06:19N 26°08' W 080°07'0 0.0
2018-Feb-21 05:37N 26°08' W 080°07'0 0.0
2018-Feb-20 19:16N 26°08' W 080°07'0 0.0
2018-Feb-20 16:58N 26°08' W 080°07'0 0.4
2018-Feb-20 16:30N 26°08' W 080°07'2 3.9
2018-Feb-20 16:00N 26°06' W 080°07'4 7.5
2018-Feb-20 15:31N 26°03' W 080°05'5 9.8
2018-Feb-20 15:00N 25°58' W 080°06'510.8
2018-Feb-20 14:30N 25°53' W 080°05'510.7
2018-Feb-20 14:00N 25°47' W 080°06'3 6.2
2018-Feb-20 13:30N 25°46' W 080°09'2 3.6
2018-Feb-20 12:58N 25°47' W 080°11'0 0.0
2018-Feb-20 12:28N 25°47' W 080°11'0 0.0
2018-Feb-20 11:58N 25°47' W 080°11'0 0.0
2018-Feb-20 11:28N 25°47' W 080°11'0 0.0
2018-Feb-20 10:58N 25°47' W 080°11'0 0.0
2018-Feb-20 10:28N 25°47' W 080°11'0 0.0
2018-Feb-20 09:58N 25°47' W 080°11'0 0.0
2018-Feb-20 09:28N 25°47' W 080°11'0 0.0
2018-Feb-20 08:49N 25°47' W 080°11'0 0.0
2018-Feb-20 08:28N 25°47' W 080°11'0 0.0
2018-Feb-20 07:58N 25°47' W 080°11'0 0.0
2018-Feb-20 07:28N 25°47' W 080°11'0 0.0
2018-Feb-20 06:58N 25°47' W 080°11'0 0.0
2018-Feb-20 06:28N 25°47' W 080°11'0 0.0
2018-Feb-20 05:52N 25°47' W 080°11'0 0.0
2018-Feb-20 05:22N 25°47' W 080°11'0 0.0
2018-Feb-20 04:55N 25°47' W 080°11'0 0.0
2018-Feb-20 04:28N 25°47' W 080°11'0 0.0
2018-Feb-20 03:55N 25°47' W 080°11'0 0.0
2018-Feb-20 03:28N 25°47' W 080°11'0 0.0
2018-Feb-20 02:55N 25°47' W 080°11'0 0.0
2018-Feb-20 02:28N 25°47' W 080°11'0 0.0
2018-Feb-20 01:55N 25°47' W 080°11'0 0.0
2018-Feb-20 01:25N 25°47' W 080°11'0 0.0
2018-Feb-20 00:58N 25°47' W 080°11'0 0.0
2018-Feb-20 00:25N 25°47' W 080°11'0 0.0
2018-Feb-19 23:58N 25°47' W 080°11'0 0.0
2018-Feb-19 23:28N 25°47' W 080°11'0 0.0
2018-Feb-19 22:58N 25°47' W 080°11'0 0.0
2018-Feb-19 22:25N 25°47' W 080°11'0 0.0
2018-Feb-19 21:58N 25°47' W 080°11'0 0.0
2018-Feb-19 21:28N 25°47' W 080°11'0 0.0
2018-Feb-19 20:58N 25°47' W 080°11'0 0.0
2018-Feb-19 20:28N 25°47' W 080°11'0 0.0
2018-Feb-19 19:58N 25°47' W 080°11'0 0.0
2018-Feb-19 19:28N 25°47' W 080°11'0 0.0
2018-Feb-19 18:58N 25°47' W 080°11'0 0.0
2018-Feb-19 18:28N 25°47' W 080°11'0 0.0
2018-Feb-19 17:58N 25°47' W 080°11'0 0.0
2018-Feb-19 17:28N 25°47' W 080°11'0 0.0
2018-Feb-19 16:52N 25°47' W 080°11'0 0.0
2018-Feb-19 16:28N 25°47' W 080°11'0 0.0
2018-Feb-19 15:55N 25°47' W 080°11'0 0.0
2018-Feb-19 15:28N 25°47' W 080°11'0 0.0
2018-Feb-19 14:58N 25°47' W 080°11'0 0.0
2018-Feb-19 14:28N 25°47' W 080°11'0 0.0
2018-Feb-19 13:52N 25°47' W 080°11'0 0.0
2018-Feb-19 13:28N 25°47' W 080°11'0 0.0
2018-Feb-19 12:55N 25°47' W 080°11'0 0.0
2018-Feb-19 12:28N 25°47' W 080°11'0 0.0
2018-Feb-19 11:55N 25°47' W 080°11'0 0.0
2018-Feb-19 11:28N 25°47' W 080°11'0 0.0
2018-Feb-19 10:58N 25°47' W 080°11'0 0.0
2018-Feb-19 10:28N 25°47' W 080°11'0 0.0
2018-Feb-19 09:55N 25°47' W 080°11'0 0.0
2018-Feb-19 09:28N 25°47' W 080°11'0 0.0
2018-Feb-19 08:58N 25°47' W 080°11'0 0.0
2018-Feb-19 08:28N 25°47' W 080°11'0 0.0
2018-Feb-19 07:58N 25°47' W 080°11'0 0.0
2018-Feb-19 07:28N 25°47' W 080°11'0 0.0
2018-Feb-19 06:58N 25°47' W 080°11'0 0.0
2018-Feb-19 06:28N 25°47' W 080°11'0 0.0
2018-Feb-19 05:58N 25°47' W 080°11'0 0.0
2018-Feb-19 05:28N 25°47' W 080°11'0 0.0
2018-Feb-19 04:58N 25°47' W 080°11'0 0.0
2018-Feb-19 04:25N 25°47' W 080°11'0 0.0
2018-Feb-19 03:58N 25°47' W 080°11'0 0.0
2018-Feb-19 03:28N 25°47' W 080°11'0 0.0
2018-Feb-19 02:58N 25°47' W 080°11'0 0.0
2018-Feb-19 02:28N 25°47' W 080°11'0 0.0
2018-Feb-19 01:58N 25°47' W 080°11'0 0.0
2018-Feb-19 01:28N 25°47' W 080°11'0 0.0
2018-Feb-19 00:58N 25°47' W 080°11'0 0.0
2018-Feb-19 00:19N 25°47' W 080°11'0 0.0
2018-Feb-18 23:58N 25°47' W 080°11'0 0.0
2018-Feb-18 23:28N 25°47' W 080°11'0 0.0
2018-Feb-18 22:52N 25°47' W 080°11'0 0.0
2018-Feb-18 22:25N 25°47' W 080°11'0 0.0
2018-Feb-18 21:58N 25°47' W 080°11'0 0.0
2018-Feb-18 21:28N 25°47' W 080°11'0 0.0
2018-Feb-18 20:58N 25°47' W 080°11'0 0.0
2018-Feb-18 20:28N 25°47' W 080°11'0 0.0
2018-Feb-18 19:55N 25°47' W 080°11'0 0.0
2018-Feb-18 19:28N 25°47' W 080°11'0 0.0
2018-Feb-18 18:58N 25°47' W 080°11'0 0.0
2018-Feb-18 18:25N 25°47' W 080°11'0 0.0
2018-Feb-18 17:58N 25°47' W 080°11'0 0.0
2018-Feb-18 17:28N 25°47' W 080°11'0 0.0
2018-Feb-18 16:58N 25°47' W 080°11'0 0.0
2018-Feb-18 16:28N 25°47' W 080°11'0 0.0
2018-Feb-18 15:58N 25°47' W 080°11'0 0.0
2018-Feb-18 15:28N 25°47' W 080°11'0 0.0
2018-Feb-18 14:58N 25°47' W 080°11'0 0.0
2018-Feb-18 14:28N 25°47' W 080°11'0 0.0
2018-Feb-18 13:58N 25°47' W 080°11'0 0.0
2018-Feb-18 13:28N 25°47' W 080°11'0 0.0
2018-Feb-18 12:55N 25°47' W 080°11'0 0.0
2018-Feb-18 12:28N 25°47' W 080°11'0 0.0
2018-Feb-18 11:58N 25°47' W 080°11'0 0.0
2018-Feb-18 11:28N 25°47' W 080°11'0 0.0
2018-Feb-18 10:58N 25°47' W 080°11'0 0.0
2018-Feb-18 10:28N 25°47' W 080°11'0 0.0
2018-Feb-18 09:58N 25°47' W 080°11'0 0.0
2018-Feb-18 09:28N 25°47' W 080°11'0 0.0
2018-Feb-18 08:58N 25°47' W 080°11'0 0.0
2018-Feb-18 08:28N 25°47' W 080°11'0 0.0
2018-Feb-18 07:58N 25°47' W 080°11'0 0.0
2018-Feb-18 07:25N 25°47' W 080°11'0 0.0
2018-Feb-18 06:58N 25°47' W 080°11'0 0.0
2018-Feb-18 06:28N 25°47' W 080°11'0 0.0
2018-Feb-18 05:58N 25°47' W 080°11'0 0.0
2018-Feb-18 05:28N 25°47' W 080°11'0 0.0
2018-Feb-18 04:55N 25°47' W 080°11'0 0.0
2018-Feb-18 04:28N 25°47' W 080°11'0 0.0
2018-Feb-18 03:52N 25°47' W 080°11'0 0.0
2018-Feb-18 03:28N 25°47' W 080°11'0 0.0
2018-Feb-18 02:58N 25°47' W 080°11'0 0.0
2018-Feb-18 02:28N 25°47' W 080°11'0 0.0
2018-Feb-18 01:58N 25°47' W 080°11'0 0.0
2018-Feb-18 01:28N 25°47' W 080°11'0 0.0
2018-Feb-18 00:58N 25°47' W 080°11'0 0.0
2018-Feb-18 00:28N 25°47' W 080°11'0 0.0
2018-Feb-17 23:58N 25°47' W 080°11'0 0.0
2018-Feb-17 23:28N 25°47' W 080°11'0 0.0
2018-Feb-17 22:58N 25°47' W 080°11'0 0.0
2018-Feb-17 22:31N 25°47' W 080°11'0 0.0
2018-Feb-17 21:58N 25°47' W 080°11'0 0.0
2018-Feb-17 21:28N 25°47' W 080°11'0 0.0
2018-Feb-17 20:58N 25°47' W 080°11'0 0.0
2018-Feb-17 20:28N 25°47' W 080°11'0 0.0
2018-Feb-17 19:58N 25°47' W 080°11'0 0.0
2018-Feb-17 19:28N 25°47' W 080°11'0 0.0
2018-Feb-17 18:58N 25°47' W 080°11'0 0.0
2018-Feb-17 18:28N 25°47' W 080°11'0 0.0
2018-Feb-17 17:55N 25°47' W 080°11'0 0.0
2018-Feb-17 17:28N 25°47' W 080°11'0 0.0
2018-Feb-17 16:55N 25°47' W 080°11'0 0.0
2018-Feb-17 16:28N 25°47' W 080°11'0 0.0
2018-Feb-17 16:01N 25°47' W 080°11'0 0.0
2018-Feb-17 15:31N 25°47' W 080°11'0 0.0
2018-Feb-17 14:57N 25°47' W 080°11'0 0.0
2018-Feb-17 14:30N 25°47' W 080°11'0 0.0
2018-Feb-17 13:58N 25°47' W 080°11'0 0.0
2018-Feb-17 13:31N 25°47' W 080°11'0 0.0
2018-Feb-17 12:57N 25°47' W 080°11'0 0.0
2018-Feb-17 12:28N 25°47' W 080°11'0 0.0
2018-Feb-17 12:01N 25°47' W 080°11'0 0.0
2018-Feb-17 11:28N 25°47' W 080°11'0 0.0
2018-Feb-17 10:58N 25°47' W 080°11'0 0.0
2018-Feb-17 10:28N 25°47' W 080°11'0 0.0
2018-Feb-17 09:57N 25°47' W 080°11'0 0.0
2018-Feb-17 09:28N 25°47' W 080°11'0 0.0
2018-Feb-17 08:54N 25°47' W 080°11'0 0.0
2018-Feb-17 08:31N 25°47' W 080°11'0 0.0
2018-Feb-17 07:57N 25°47' W 080°11'0 0.0
2018-Feb-17 07:31N 25°47' W 080°11'0 0.0
2018-Feb-17 07:01N 25°47' W 080°11'0 0.0
2018-Feb-17 06:25N 25°47' W 080°11'0 0.0
2018-Feb-17 05:57N 25°47' W 080°11'0 0.0
2018-Feb-17 05:27N 25°47' W 080°11'0 0.0
2018-Feb-17 05:00N 25°47' W 080°11'0 0.0
2018-Feb-17 04:31N 25°47' W 080°11'0 0.0
2018-Feb-17 04:00N 25°47' W 080°11'0 0.0
2018-Feb-17 03:30N 25°47' W 080°11'0 0.0
2018-Feb-17 03:00N 25°47' W 080°11'0 0.0
2018-Feb-17 02:30N 25°47' W 080°11'0 0.0
2018-Feb-17 01:57N 25°47' W 080°11'0 0.0
2018-Feb-17 01:30N 25°47' W 080°11'0 0.0
2018-Feb-17 01:00N 25°47' W 080°11'0 0.0
2018-Feb-17 00:19N 25°47' W 080°11'0 0.0
2018-Feb-16 23:57N 25°47' W 080°11'0 0.0
2018-Feb-16 23:27N 25°47' W 080°11'0 0.0
2018-Feb-16 22:57N 25°47' W 080°11'0 0.0
2018-Feb-16 22:24N 25°47' W 080°11'0 0.0
2018-Feb-16 22:00N 25°47' W 080°11'0 0.0
2018-Feb-16 21:24N 25°47' W 080°11'0 0.0
2018-Feb-16 21:00N 25°47' W 080°11'0 0.0
2018-Feb-16 20:31N 25°47' W 080°11'0 0.0
2018-Feb-16 20:00N 25°47' W 080°11'0 0.0
2018-Feb-16 19:31N 25°47' W 080°11'0 0.0
2018-Feb-16 19:00N 25°47' W 080°11'0 0.0
2018-Feb-16 18:30N 25°47' W 080°11'0 0.0
2018-Feb-16 18:00N 25°47' W 080°11'0 0.0
2018-Feb-16 17:30N 25°47' W 080°11'0 0.0
2018-Feb-16 17:00N 25°47' W 080°11'0 0.0
2018-Feb-16 16:30N 25°47' W 080°11'0 0.0
2018-Feb-16 16:00N 25°47' W 080°11'0 0.0
2018-Feb-16 15:30N 25°47' W 080°11'0 0.0
2018-Feb-16 15:00N 25°47' W 080°11'0 0.0
2018-Feb-16 14:30N 25°47' W 080°11'0 0.0
2018-Feb-16 14:00N 25°47' W 080°11'0 0.0
2018-Feb-16 13:30N 25°47' W 080°11'0 0.0
2018-Feb-16 13:00N 25°47' W 080°11'0 0.0
2018-Feb-16 12:30N 25°47' W 080°11'0 0.0
2018-Feb-16 12:00N 25°47' W 080°11'0 0.0
2018-Feb-16 11:30N 25°47' W 080°11'0 0.0
2018-Feb-16 10:48N 25°47' W 080°11'0 0.0
2018-Feb-16 10:30N 25°47' W 080°11'0 0.0
2018-Feb-16 10:00N 25°47' W 080°11'0 0.0
2018-Feb-16 09:24N 25°47' W 080°11'0 0.0
2018-Feb-16 09:00N 25°47' W 080°11'0 0.0
2018-Feb-16 08:21N 25°47' W 080°11'0 0.0
2018-Feb-16 08:00N 25°47' W 080°11'0 0.0
2018-Feb-16 07:30N 25°47' W 080°11'0 0.0
2018-Feb-16 06:54N 25°47' W 080°11'0 0.0
2018-Feb-16 06:24N 25°47' W 080°11'0 0.0
2018-Feb-16 06:00N 25°47' W 080°11'0 0.0
2018-Feb-16 05:30N 25°47' W 080°11'0 0.0
2018-Feb-16 05:00N 25°47' W 080°11'0 0.0
2018-Feb-16 04:30N 25°47' W 080°11'0 0.0
2018-Feb-16 03:57N 25°47' W 080°11'0 0.0
2018-Feb-16 03:30N 25°47' W 080°11'0 0.0
2018-Feb-16 03:00N 25°47' W 080°11'0 0.0
2018-Feb-16 02:30N 25°47' W 080°11'0 0.0
2018-Feb-16 02:00N 25°47' W 080°11'0 0.0
2018-Feb-16 01:30N 25°47' W 080°11'0 0.0
2018-Feb-16 01:00N 25°47' W 080°11'0 0.0
2018-Feb-16 00:30N 25°47' W 080°11'0 0.0
2018-Feb-16 00:00N 25°47' W 080°11'0 0.0
2018-Feb-15 23:30N 25°47' W 080°11'0 0.0
2018-Feb-15 23:00N 25°47' W 080°11'0 0.0
2018-Feb-15 22:30N 25°47' W 080°11'0 0.0
2018-Feb-15 21:57N 25°47' W 080°11'0 0.0
2018-Feb-15 21:30N 25°47' W 080°11'0 0.0
2018-Feb-15 21:00N 25°47' W 080°11'0 0.0
2018-Feb-15 20:30N 25°47' W 080°11'0 0.0
2018-Feb-15 20:00N 25°47' W 080°11'0 0.0
2018-Feb-15 19:30N 25°47' W 080°11'0 0.0
2018-Feb-15 18:54N 25°47' W 080°11'0 0.0
2018-Feb-15 18:30N 25°47' W 080°11'0 0.0
2018-Feb-15 17:57N 25°47' W 080°11'0 0.0
2018-Feb-15 17:24N 25°47' W 080°11'0 0.0
2018-Feb-15 17:00N 25°47' W 080°11'0 0.0
2018-Feb-15 16:27N 25°47' W 080°11'0 0.0
2018-Feb-15 16:00N 25°47' W 080°11'0 0.0
2018-Feb-15 15:30N 25°47' W 080°11'0 0.0
2018-Feb-15 15:00N 25°47' W 080°11'0 0.0
2018-Feb-15 14:30N 25°47' W 080°11'0 0.0
2018-Feb-15 14:00N 25°47' W 080°11'0 0.0
2018-Feb-15 13:30N 25°47' W 080°11'0 0.0
2018-Feb-15 12:57N 25°47' W 080°11'0 0.0
2018-Feb-15 12:27N 25°47' W 080°11'0 0.0
2018-Feb-15 12:00N 25°47' W 080°11'0 0.0
2018-Feb-15 11:30N 25°47' W 080°11'0 0.0
2018-Feb-15 11:00N 25°47' W 080°11'0 0.0
2018-Feb-15 10:30N 25°47' W 080°11'0 0.0
2018-Feb-15 10:00N 25°47' W 080°11'0 0.0
2018-Feb-15 09:30N 25°47' W 080°11'0 0.0
2018-Feb-15 09:00N 25°47' W 080°11'0 0.0
2018-Feb-15 08:30N 25°47' W 080°11'0 0.0
2018-Feb-15 08:00N 25°47' W 080°11'0 0.0
2018-Feb-15 07:30N 25°47' W 080°11'0 0.0
2018-Feb-15 07:00N 25°47' W 080°11'0 0.0
2018-Feb-15 06:30N 25°47' W 080°11'0 0.0
2018-Feb-15 06:00N 25°47' W 080°11'0 0.0
2018-Feb-15 05:30N 25°47' W 080°11'0 0.0
2018-Feb-15 05:00N 25°47' W 080°11'0 0.0
2018-Feb-15 04:30N 25°47' W 080°11'0 0.0
2018-Feb-15 04:00N 25°47' W 080°11'0 0.0
2018-Feb-15 03:27N 25°47' W 080°11'0 0.0
2018-Feb-15 03:00N 25°47' W 080°11'0 0.0
2018-Feb-15 02:27N 25°47' W 080°11'0 0.0
2018-Feb-15 02:00N 25°47' W 080°11'0 0.0
2018-Feb-15 01:24N 25°47' W 080°11'0 0.0
2018-Feb-15 00:57N 25°47' W 080°11'0 0.0
2018-Feb-15 00:30N 25°47' W 080°11'0 0.0
2018-Feb-15 00:00N 25°47' W 080°11'0 0.0
2018-Feb-14 23:30N 25°47' W 080°11'0 0.0
2018-Feb-14 22:57N 25°47' W 080°11'0 0.0
2018-Feb-14 22:24N 25°47' W 080°11'0 0.0
2018-Feb-14 21:57N 25°47' W 080°11'0 0.0
2018-Feb-14 21:30N 25°47' W 080°11'0 0.0
2018-Feb-14 21:00N 25°47' W 080°11'0 0.0
2018-Feb-14 20:30N 25°47' W 080°11'0 0.0
2018-Feb-14 20:00N 25°47' W 080°11'0 0.0
2018-Feb-14 19:30N 25°47' W 080°11'0 0.0
2018-Feb-14 19:00N 25°47' W 080°11'0 0.0
2018-Feb-14 18:30N 25°47' W 080°11'0 0.0
2018-Feb-14 18:00N 25°47' W 080°11'0 0.0
2018-Feb-14 17:30N 25°47' W 080°11'0 0.0
2018-Feb-14 17:00N 25°47' W 080°11'1 2.4
2018-Feb-14 16:30N 25°47' W 080°10'3 6.4
2018-Feb-14 16:00N 25°46' W 080°06'611.2
2018-Feb-14 15:30N 25°52' W 080°06'611.0
2018-Feb-14 15:00N 25°57' W 080°06'611.5
2018-Feb-14 14:30N 26°03' W 080°05'4 7.5
2018-Feb-14 13:59N 26°06' W 080°07'2 4.4
2018-Feb-14 13:30N 26°08' W 080°06'0 0.2
2018-Feb-14 13:00N 26°08' W 080°07'0 0.0
2018-Feb-14 12:29N 26°08' W 080°07'  

Dump ship's entire track history